sensor_id;sensor_type;location;lat;lon;timestamp;P1;durP1;ratioP1;P2;durP2;ratioP2
58842;SDS011;44614;54.356;10.100;2022-08-01T00:01:20;11.13;;;5.13;;
58842;SDS011;44614;54.356;10.100;2022-08-01T00:03:45;10.77;;;5.20;;
58842;SDS011;44614;54.356;10.100;2022-08-01T00:06:11;12.00;;;7.87;;
58842;SDS011;44614;54.356;10.100;2022-08-01T00:08:36;12.43;;;6.23;;
58842;SDS011;44614;54.356;10.100;2022-08-01T00:11:02;15.63;;;6.07;;
58842;SDS011;44614;54.356;10.100;2022-08-01T00:13:27;13.07;;;7.17;;
58842;SDS011;44614;54.356;10.100;2022-08-01T00:15:52;12.23;;;7.67;;
58842;SDS011;44614;54.356;10.100;2022-08-01T00:18:18;13.23;;;6.50;;
58842;SDS011;44614;54.356;10.100;2022-08-01T00:20:44;13.50;;;8.10;;
58842;SDS011;44614;54.356;10.100;2022-08-01T00:23:10;13.45;;;6.53;;
58842;SDS011;44614;54.356;10.100;2022-08-01T00:25:36;12.37;;;7.30;;
58842;SDS011;44614;54.356;10.100;2022-08-01T00:28:01;15.27;;;8.07;;
58842;SDS011;44614;54.356;10.100;2022-08-01T00:30:27;16.23;;;8.37;;
58842;SDS011;44614;54.356;10.100;2022-08-01T00:32:52;17.17;;;8.90;;
58842;SDS011;44614;54.356;10.100;2022-08-01T00:35:17;17.17;;;8.43;;
58842;SDS011;44614;54.356;10.100;2022-08-01T00:37:43;15.63;;;8.20;;
58842;SDS011;44614;54.356;10.100;2022-08-01T00:40:09;19.80;;;8.47;;
58842;SDS011;44614;54.356;10.100;2022-08-01T00:42:34;19.00;;;9.43;;
58842;SDS011;44614;54.356;10.100;2022-08-01T00:45:00;18.63;;;9.30;;
58842;SDS011;44614;54.356;10.100;2022-08-01T00:47:25;18.90;;;9.30;;
58842;SDS011;44614;54.356;10.100;2022-08-01T00:49:51;18.27;;;8.77;;
58842;SDS011;44614;54.356;10.100;2022-08-01T00:52:16;20.97;;;9.73;;
58842;SDS011;44614;54.356;10.100;2022-08-01T00:54:42;23.10;;;9.77;;
58842;SDS011;44614;54.356;10.100;2022-08-01T00:57:08;17.57;;;8.30;;
58842;SDS011;44614;54.356;10.100;2022-08-01T00:59:33;21.40;;;9.77;;
58842;SDS011;44614;54.356;10.100;2022-08-01T01:01:59;20.40;;;9.93;;
58842;SDS011;44614;54.356;10.100;2022-08-01T01:04:24;18.27;;;9.27;;
58842;SDS011;44614;54.356;10.100;2022-08-01T01:18:07;32.22;;;11.90;;
58842;SDS011;44614;54.356;10.100;2022-08-01T01:20:46;23.63;;;9.52;;
58842;SDS011;44614;54.356;10.100;2022-08-01T01:31:28;21.98;;;9.60;;
58842;SDS011;44614;54.356;10.100;2022-08-01T01:33:57;19.50;;;9.40;;
58842;SDS011;44614;54.356;10.100;2022-08-01T01:36:26;22.05;;;10.05;;
58842;SDS011;44614;54.356;10.100;2022-08-01T01:38:53;25.65;;;10.27;;
58842;SDS011;44614;54.356;10.100;2022-08-01T01:41:21;20.67;;;9.07;;
58842;SDS011;44614;54.356;10.100;2022-08-01T01:43:48;25.83;;;9.95;;
58842;SDS011;44614;54.356;10.100;2022-08-01T01:46:16;21.40;;;9.35;;
58842;SDS011;44614;54.356;10.100;2022-08-01T01:48:44;21.48;;;10.70;;
58842;SDS011;44614;54.356;10.100;2022-08-01T01:51:12;22.27;;;8.93;;
58842;SDS011;44614;54.356;10.100;2022-08-01T01:53:40;20.58;;;8.95;;
58842;SDS011;44614;54.356;10.100;2022-08-01T01:56:06;20.33;;;9.95;;
58842;SDS011;44614;54.356;10.100;2022-08-01T01:58:34;25.35;;;11.10;;
58842;SDS011;44614;54.356;10.100;2022-08-01T02:01:02;20.13;;;8.60;;
58842;SDS011;44614;54.356;10.100;2022-08-01T02:03:28;25.40;;;9.45;;
58842;SDS011;44614;54.356;10.100;2022-08-01T02:05:54;25.23;;;10.60;;
58842;SDS011;44614;54.356;10.100;2022-08-01T02:08:21;23.98;;;9.48;;
58842;SDS011;44614;54.356;10.100;2022-08-01T02:10:50;21.10;;;10.05;;
58842;SDS011;44614;54.356;10.100;2022-08-01T02:13:53;23.20;;;9.80;;
58842;SDS011;44614;54.356;10.100;2022-08-01T02:16:28;25.83;;;10.40;;
58842;SDS011;44614;54.356;10.100;2022-08-01T02:18:58;25.13;;;10.07;;
58842;SDS011;44614;54.356;10.100;2022-08-01T02:21:29;19.88;;;8.73;;
58842;SDS011;44614;54.356;10.100;2022-08-01T02:24:00;25.50;;;10.40;;
58842;SDS011;44614;54.356;10.100;2022-08-01T02:26:47;21.30;;;9.00;;
58842;SDS011;44614;54.356;10.100;2022-08-01T02:29:17;22.65;;;10.68;;
58842;SDS011;44614;54.356;10.100;2022-08-01T02:31:53;20.87;;;10.03;;
58842;SDS011;44614;54.356;10.100;2022-08-01T02:34:19;19.70;;;8.88;;
58842;SDS011;44614;54.356;10.100;2022-08-01T02:36:46;26.17;;;9.23;;
58842;SDS011;44614;54.356;10.100;2022-08-01T02:39:14;22.23;;;9.10;;
58842;SDS011;44614;54.356;10.100;2022-08-01T02:41:43;23.48;;;9.93;;
58842;SDS011;44614;54.356;10.100;2022-08-01T02:44:15;25.85;;;8.88;;
58842;SDS011;44614;54.356;10.100;2022-08-01T02:46:56;21.05;;;8.77;;
58842;SDS011;44614;54.356;10.100;2022-08-01T02:49:27;17.95;;;8.43;;
58842;SDS011;44614;54.356;10.100;2022-08-01T02:51:55;15.95;;;7.70;;
58842;SDS011;44614;54.356;10.100;2022-08-01T02:54:23;20.17;;;9.20;;
58842;SDS011;44614;54.356;10.100;2022-08-01T02:56:50;21.45;;;8.38;;
58842;SDS011;44614;54.356;10.100;2022-08-01T02:59:18;25.73;;;8.27;;
58842;SDS011;44614;54.356;10.100;2022-08-01T03:01:49;17.05;;;7.88;;
58842;SDS011;44614;54.356;10.100;2022-08-01T03:04:16;14.10;;;7.45;;
58842;SDS011;44614;54.356;10.100;2022-08-01T03:06:43;16.85;;;7.20;;
58842;SDS011;44614;54.356;10.100;2022-08-01T03:11:36;14.57;;;7.72;;
58842;SDS011;44614;54.356;10.100;2022-08-01T03:14:07;17.65;;;7.75;;
58842;SDS011;44614;54.356;10.100;2022-08-01T03:16:35;19.23;;;8.70;;
58842;SDS011;44614;54.356;10.100;2022-08-01T03:19:02;19.00;;;9.13;;
58842;SDS011;44614;54.356;10.100;2022-08-01T03:23:56;16.98;;;7.60;;
58842;SDS011;44614;54.356;10.100;2022-08-01T03:26:25;17.38;;;8.80;;
58842;SDS011;44614;54.356;10.100;2022-08-01T03:28:55;17.23;;;8.38;;
58842;SDS011;44614;54.356;10.100;2022-08-01T03:31:24;15.95;;;7.97;;
58842;SDS011;44614;54.356;10.100;2022-08-01T03:33:50;19.45;;;7.78;;
58842;SDS011;44614;54.356;10.100;2022-08-01T03:36:16;19.87;;;8.43;;
58842;SDS011;44614;54.356;10.100;2022-08-01T03:38:46;17.88;;;7.78;;
58842;SDS011;44614;54.356;10.100;2022-08-01T03:41:16;19.77;;;6.90;;
58842;SDS011;44614;54.356;10.100;2022-08-01T03:43:55;18.75;;;8.00;;
58842;SDS011;44614;54.356;10.100;2022-08-01T03:46:28;18.35;;;8.15;;
58842;SDS011;44614;54.356;10.100;2022-08-01T03:49:01;19.02;;;7.60;;
58842;SDS011;44614;54.356;10.100;2022-08-01T03:51:31;20.08;;;8.32;;
58842;SDS011;44614;54.356;10.100;2022-08-01T03:53:59;15.95;;;8.43;;
58842;SDS011;44614;54.356;10.100;2022-08-01T03:56:26;15.60;;;6.20;;
58842;SDS011;44614;54.356;10.100;2022-08-01T03:58:53;13.90;;;6.45;;
58842;SDS011;44614;54.356;10.100;2022-08-01T04:01:19;12.68;;;7.05;;
58842;SDS011;44614;54.356;10.100;2022-08-01T04:03:44;13.17;;;6.63;;
58842;SDS011;44614;54.356;10.100;2022-08-01T04:06:10;12.63;;;5.83;;
58842;SDS011;44614;54.356;10.100;2022-08-01T04:08:39;17.48;;;7.25;;
58842;SDS011;44614;54.356;10.100;2022-08-01T04:11:05;10.80;;;5.38;;
58842;SDS011;44614;54.356;10.100;2022-08-01T04:13:33;11.60;;;5.88;;
58842;SDS011;44614;54.356;10.100;2022-08-01T04:15:58;12.63;;;6.80;;
58842;SDS011;44614;54.356;10.100;2022-08-01T04:18:24;11.07;;;5.93;;
58842;SDS011;44614;54.356;10.100;2022-08-01T04:20:49;17.57;;;5.97;;
58842;SDS011;44614;54.356;10.100;2022-08-01T04:23:15;10.53;;;4.90;;
58842;SDS011;44614;54.356;10.100;2022-08-01T04:25:45;9.43;;;4.75;;
58842;SDS011;44614;54.356;10.100;2022-08-01T04:28:13;11.68;;;5.38;;
58842;SDS011;44614;54.356;10.100;2022-08-01T04:30:42;8.68;;;5.28;;
58842;SDS011;44614;54.356;10.100;2022-08-01T04:33:11;8.98;;;4.25;;
58842;SDS011;44614;54.356;10.100;2022-08-01T04:35:43;9.40;;;4.45;;
58842;SDS011;44614;54.356;10.100;2022-08-01T04:38:11;8.20;;;4.60;;
58842;SDS011;44614;54.356;10.100;2022-08-01T04:40:40;11.10;;;4.90;;
58842;SDS011;44614;54.356;10.100;2022-08-01T04:43:06;8.48;;;4.35;;
58842;SDS011;44614;54.356;10.100;2022-08-01T04:45:32;10.18;;;4.63;;
58842;SDS011;44614;54.356;10.100;2022-08-01T04:47:59;8.48;;;3.80;;
58842;SDS011;44614;54.356;10.100;2022-08-01T04:50:25;7.32;;;3.95;;
58842;SDS011;44614;54.356;10.100;2022-08-01T04:55:17;8.07;;;3.70;;
58842;SDS011;44614;54.356;10.100;2022-08-01T04:57:44;6.43;;;3.30;;
58842;SDS011;44614;54.356;10.100;2022-08-01T05:00:11;10.48;;;4.63;;
58842;SDS011;44614;54.356;10.100;2022-08-01T05:02:37;9.07;;;4.43;;
58842;SDS011;44614;54.356;10.100;2022-08-01T05:05:03;10.17;;;4.33;;
58842;SDS011;44614;54.356;10.100;2022-08-01T05:07:30;11.32;;;4.57;;
58842;SDS011;44614;54.356;10.100;2022-08-01T05:09:56;8.50;;;4.30;;
58842;SDS011;44614;54.356;10.100;2022-08-01T05:12:22;8.33;;;3.63;;
58842;SDS011;44614;54.356;10.100;2022-08-01T05:14:47;9.33;;;4.00;;
58842;SDS011;44614;54.356;10.100;2022-08-01T05:17:13;11.63;;;5.13;;
58842;SDS011;44614;54.356;10.100;2022-08-01T05:19:38;9.97;;;4.60;;
58842;SDS011;44614;54.356;10.100;2022-08-01T05:22:05;10.38;;;3.88;;
58842;SDS011;44614;54.356;10.100;2022-08-01T05:24:32;8.70;;;4.55;;
58842;SDS011;44614;54.356;10.100;2022-08-01T05:26:59;11.18;;;4.95;;
58842;SDS011;44614;54.356;10.100;2022-08-01T05:29:25;13.43;;;5.70;;
58842;SDS011;44614;54.356;10.100;2022-08-01T05:31:51;9.87;;;4.30;;
58842;SDS011;44614;54.356;10.100;2022-08-01T05:34:17;10.07;;;4.40;;
58842;SDS011;44614;54.356;10.100;2022-08-01T05:36:43;11.17;;;3.73;;
58842;SDS011;44614;54.356;10.100;2022-08-01T05:39:09;9.33;;;4.30;;
58842;SDS011;44614;54.356;10.100;2022-08-01T05:41:38;10.23;;;4.43;;
58842;SDS011;44614;54.356;10.100;2022-08-01T05:44:04;7.70;;;4.00;;
58842;SDS011;44614;54.356;10.100;2022-08-01T05:46:30;10.02;;;4.85;;
58842;SDS011;44614;54.356;10.100;2022-08-01T05:48:59;10.65;;;3.80;;
58842;SDS011;44614;54.356;10.100;2022-08-01T05:51:26;7.03;;;3.55;;
58842;SDS011;44614;54.356;10.100;2022-08-01T05:53:52;8.27;;;3.93;;
58842;SDS011;44614;54.356;10.100;2022-08-01T05:56:18;9.67;;;3.07;;
58842;SDS011;44614;54.356;10.100;2022-08-01T05:58:43;8.83;;;4.37;;
58842;SDS011;44614;54.356;10.100;2022-08-01T06:01:09;6.30;;;3.30;;
58842;SDS011;44614;54.356;10.100;2022-08-01T06:03:35;6.23;;;2.97;;
58842;SDS011;44614;54.356;10.100;2022-08-01T06:06:00;7.10;;;3.13;;
58842;SDS011;44614;54.356;10.100;2022-08-01T06:08:27;7.03;;;3.65;;
58842;SDS011;44614;54.356;10.100;2022-08-01T06:10:52;4.23;;;1.97;;
58842;SDS011;44614;54.356;10.100;2022-08-01T06:13:18;4.80;;;2.50;;
58842;SDS011;44614;54.356;10.100;2022-08-01T06:15:46;7.70;;;2.80;;
58842;SDS011;44614;54.356;10.100;2022-08-01T06:18:13;7.15;;;2.40;;
58842;SDS011;44614;54.356;10.100;2022-08-01T06:20:39;3.97;;;1.92;;
58842;SDS011;44614;54.356;10.100;2022-08-01T06:23:04;5.80;;;2.97;;
58842;SDS011;44614;54.356;10.100;2022-08-01T06:25:30;8.77;;;3.30;;
58842;SDS011;44614;54.356;10.100;2022-08-01T06:27:56;3.67;;;2.53;;
58842;SDS011;44614;54.356;10.100;2022-08-01T06:30:21;4.73;;;2.40;;
58842;SDS011;44614;54.356;10.100;2022-08-01T06:32:47;5.20;;;2.27;;
58842;SDS011;44614;54.356;10.100;2022-08-01T06:35:13;13.10;;;2.07;;
58842;SDS011;44614;54.356;10.100;2022-08-01T06:40:06;4.50;;;2.37;;
58842;SDS011;44614;54.356;10.100;2022-08-01T06:42:33;3.90;;;2.08;;
58842;SDS011;44614;54.356;10.100;2022-08-01T06:47:28;9.57;;;1.67;;
58842;SDS011;44614;54.356;10.100;2022-08-01T06:49:53;7.00;;;1.53;;
58842;SDS011;44614;54.356;10.100;2022-08-01T06:52:19;6.73;;;1.70;;
58842;SDS011;44614;54.356;10.100;2022-08-01T06:54:44;4.13;;;1.30;;
58842;SDS011;44614;54.356;10.100;2022-08-01T06:57:10;4.13;;;1.77;;
58842;SDS011;44614;54.356;10.100;2022-08-01T06:59:35;6.73;;;1.73;;
58842;SDS011;44614;54.356;10.100;2022-08-01T07:02:00;4.83;;;1.40;;
58842;SDS011;44614;54.356;10.100;2022-08-01T07:04:26;3.33;;;1.53;;
58842;SDS011;44614;54.356;10.100;2022-08-01T07:06:52;6.07;;;1.30;;
58842;SDS011;44614;54.356;10.100;2022-08-01T07:09:17;8.73;;;1.70;;
58842;SDS011;44614;54.356;10.100;2022-08-01T07:11:43;3.03;;;1.17;;
58842;SDS011;44614;54.356;10.100;2022-08-01T07:14:08;3.97;;;1.27;;
58842;SDS011;44614;54.356;10.100;2022-08-01T07:16:34;3.13;;;1.50;;
58842;SDS011;44614;54.356;10.100;2022-08-01T07:18:59;4.23;;;0.97;;
58842;SDS011;44614;54.356;10.100;2022-08-01T07:21:24;10.50;;;2.17;;
58842;SDS011;44614;54.356;10.100;2022-08-01T07:23:50;1.40;;;0.93;;
58842;SDS011;44614;54.356;10.100;2022-08-01T07:26:15;3.90;;;1.20;;
58842;SDS011;44614;54.356;10.100;2022-08-01T07:31:07;2.75;;;0.73;;
58842;SDS011;44614;54.356;10.100;2022-08-01T07:33:33;1.57;;;1.07;;
58842;SDS011;44614;54.356;10.100;2022-08-01T07:35:58;3.17;;;1.00;;
58842;SDS011;44614;54.356;10.100;2022-08-01T07:38:24;3.43;;;1.40;;
58842;SDS011;44614;54.356;10.100;2022-08-01T07:40:49;4.90;;;1.40;;
58842;SDS011;44614;54.356;10.100;2022-08-01T07:43:15;4.33;;;1.30;;
58842;SDS011;44614;54.356;10.100;2022-08-01T07:45:40;5.50;;;1.43;;
58842;SDS011;44614;54.356;10.100;2022-08-01T07:48:06;3.47;;;1.07;;
58842;SDS011;44614;54.356;10.100;2022-08-01T07:50:32;4.57;;;1.63;;
58842;SDS011;44614;54.356;10.100;2022-08-01T07:53:08;4.57;;;1.63;;
58842;SDS011;44614;54.356;10.100;2022-08-01T07:58:01;9.65;;;1.90;;
58842;SDS011;44614;54.356;10.100;2022-08-01T08:02:57;4.30;;;1.95;;
58842;SDS011;44614;54.356;10.100;2022-08-01T08:05:24;3.22;;;0.95;;
58842;SDS011;44614;54.356;10.100;2022-08-01T08:07:50;2.17;;;1.25;;
58842;SDS011;44614;54.356;10.100;2022-08-01T08:10:16;3.03;;;1.53;;
58842;SDS011;44614;54.356;10.100;2022-08-01T08:12:41;4.20;;;1.50;;
58842;SDS011;44614;54.356;10.100;2022-08-01T08:15:09;3.13;;;1.73;;
58842;SDS011;44614;54.356;10.100;2022-08-01T08:17:34;7.50;;;1.17;;
58842;SDS011;44614;54.356;10.100;2022-08-01T08:20:00;7.18;;;1.65;;
58842;SDS011;44614;54.356;10.100;2022-08-01T08:22:27;8.07;;;1.23;;
58842;SDS011;44614;54.356;10.100;2022-08-01T08:24:52;3.30;;;1.23;;
58842;SDS011;44614;54.356;10.100;2022-08-01T08:27:18;7.50;;;1.30;;
58842;SDS011;44614;54.356;10.100;2022-08-01T08:29:43;4.13;;;1.63;;
58842;SDS011;44614;54.356;10.100;2022-08-01T08:32:09;17.23;;;1.70;;
58842;SDS011;44614;54.356;10.100;2022-08-01T08:34:34;3.73;;;1.33;;
58842;SDS011;44614;54.356;10.100;2022-08-01T08:37:00;10.25;;;1.65;;
58842;SDS011;44614;54.356;10.100;2022-08-01T08:39:26;3.85;;;1.42;;
58842;SDS011;44614;54.356;10.100;2022-08-01T08:41:54;4.57;;;0.85;;
58842;SDS011;44614;54.356;10.100;2022-08-01T08:44:22;6.78;;;1.17;;
58842;SDS011;44614;54.356;10.100;2022-08-01T08:46:48;6.63;;;1.17;;
58842;SDS011;44614;54.356;10.100;2022-08-01T08:49:26;7.97;;;1.40;;
58842;SDS011;44614;54.356;10.100;2022-08-01T08:51:53;11.02;;;1.48;;
58842;SDS011;44614;54.356;10.100;2022-08-01T08:54:24;4.47;;;1.42;;
58842;SDS011;44614;54.356;10.100;2022-08-01T08:56:53;13.73;;;2.95;;
58842;SDS011;44614;54.356;10.100;2022-08-01T08:59:21;6.70;;;1.30;;
58842;SDS011;44614;54.356;10.100;2022-08-01T09:01:49;3.03;;;1.15;;
58842;SDS011;44614;54.356;10.100;2022-08-01T09:04:15;4.72;;;1.50;;
58842;SDS011;44614;54.356;10.100;2022-08-01T09:06:41;6.95;;;1.13;;
58842;SDS011;44614;54.356;10.100;2022-08-01T09:09:07;7.05;;;1.13;;
58842;SDS011;44614;54.356;10.100;2022-08-01T09:11:33;6.43;;;1.35;;
58842;SDS011;44614;54.356;10.100;2022-08-01T09:14:10;5.97;;;1.30;;
58842;SDS011;44614;54.356;10.100;2022-08-01T09:16:39;5.40;;;1.15;;
58842;SDS011;44614;54.356;10.100;2022-08-01T09:19:17;5.20;;;1.67;;
58842;SDS011;44614;54.356;10.100;2022-08-01T09:21:57;8.13;;;1.33;;
58842;SDS011;44614;54.356;10.100;2022-08-01T09:24:29;8.05;;;1.67;;
58842;SDS011;44614;54.356;10.100;2022-08-01T09:26:57;6.40;;;1.23;;
58842;SDS011;44614;54.356;10.100;2022-08-01T09:29:24;5.93;;;1.73;;
58842;SDS011;44614;54.356;10.100;2022-08-01T09:31:51;7.95;;;1.83;;
58842;SDS011;44614;54.356;10.100;2022-08-01T09:34:25;4.45;;;1.52;;
58842;SDS011;44614;54.356;10.100;2022-08-01T09:36:59;6.88;;;1.10;;
58842;SDS011;44614;54.356;10.100;2022-08-01T09:39:27;6.88;;;0.95;;
58842;SDS011;44614;54.356;10.100;2022-08-01T09:41:56;7.05;;;1.33;;
58842;SDS011;44614;54.356;10.100;2022-08-01T09:44:40;7.40;;;1.33;;
58842;SDS011;44614;54.356;10.100;2022-08-01T09:47:08;3.50;;;1.05;;
58842;SDS011;44614;54.356;10.100;2022-08-01T09:49:36;3.80;;;0.90;;
58842;SDS011;44614;54.356;10.100;2022-08-01T09:52:13;2.92;;;0.85;;
58842;SDS011;44614;54.356;10.100;2022-08-01T09:54:39;5.85;;;1.10;;
58842;SDS011;44614;54.356;10.100;2022-08-01T09:57:15;3.50;;;0.80;;
58842;SDS011;44614;54.356;10.100;2022-08-01T09:59:45;4.03;;;1.10;;
58842;SDS011;44614;54.356;10.100;2022-08-01T10:02:13;8.52;;;1.13;;
58842;SDS011;44614;54.356;10.100;2022-08-01T10:04:51;2.42;;;1.38;;
58842;SDS011;44614;54.356;10.100;2022-08-01T10:09:43;4.20;;;0.68;;
58842;SDS011;44614;54.356;10.100;2022-08-01T10:12:11;5.00;;;1.00;;
58842;SDS011;44614;54.356;10.100;2022-08-01T10:14:39;4.03;;;0.95;;
58842;SDS011;44614;54.356;10.100;2022-08-01T10:17:06;2.45;;;0.80;;
58842;SDS011;44614;54.356;10.100;2022-08-01T10:19:34;5.30;;;0.82;;
58842;SDS011;44614;54.356;10.100;2022-08-01T10:22:00;3.88;;;0.80;;
58842;SDS011;44614;54.356;10.100;2022-08-01T10:24:28;3.30;;;0.80;;
58842;SDS011;44614;54.356;10.100;2022-08-01T10:26:56;1.88;;;0.60;;
58842;SDS011;44614;54.356;10.100;2022-08-01T10:29:28;6.18;;;1.20;;
58842;SDS011;44614;54.356;10.100;2022-08-01T10:32:00;3.35;;;0.60;;
58842;SDS011;44614;54.356;10.100;2022-08-01T10:36:52;3.70;;;0.90;;
58842;SDS011;44614;54.356;10.100;2022-08-01T10:41:45;4.57;;;0.82;;
58842;SDS011;44614;54.356;10.100;2022-08-01T10:46:37;4.33;;;0.93;;
58842;SDS011;44614;54.356;10.100;2022-08-01T10:51:39;3.85;;;0.80;;
58842;SDS011;44614;54.356;10.100;2022-08-01T10:54:06;4.15;;;1.80;;
58842;SDS011;44614;54.356;10.100;2022-08-01T10:56:42;8.45;;;1.65;;
58842;SDS011;44614;54.356;10.100;2022-08-01T10:59:15;5.35;;;1.10;;
58842;SDS011;44614;54.356;10.100;2022-08-01T11:02:02;3.92;;;1.05;;
58842;SDS011;44614;54.356;10.100;2022-08-01T11:04:40;6.22;;;0.98;;
58842;SDS011;44614;54.356;10.100;2022-08-01T11:07:20;7.80;;;1.15;;
58842;SDS011;44614;54.356;10.100;2022-08-01T11:09:51;6.38;;;1.52;;
58842;SDS011;44614;54.356;10.100;2022-08-01T11:12:38;4.40;;;0.90;;
58842;SDS011;44614;54.356;10.100;2022-08-01T11:17:33;8.43;;;0.82;;
58842;SDS011;44614;54.356;10.100;2022-08-01T11:20:26;4.10;;;0.52;;
58842;SDS011;44614;54.356;10.100;2022-08-01T11:30:41;2.78;;;0.88;;
58842;SDS011;44614;54.356;10.100;2022-08-01T11:33:15;2.13;;;0.70;;
58842;SDS011;44614;54.356;10.100;2022-08-01T11:52:17;4.13;;;0.70;;
58842;SDS011;44614;54.356;10.100;2022-08-01T11:54:47;3.85;;;0.90;;
58842;SDS011;44614;54.356;10.100;2022-08-01T11:57:22;2.63;;;0.77;;
58842;SDS011;44614;54.356;10.100;2022-08-01T11:59:56;5.78;;;1.00;;
58842;SDS011;44614;54.356;10.100;2022-08-01T12:02:24;6.95;;;0.98;;
58842;SDS011;44614;54.356;10.100;2022-08-01T12:07:23;1.98;;;0.88;;
58842;SDS011;44614;54.356;10.100;2022-08-01T12:10:04;4.75;;;0.90;;
58842;SDS011;44614;54.356;10.100;2022-08-01T12:12:31;5.25;;;1.05;;
58842;SDS011;44614;54.356;10.100;2022-08-01T12:15:02;3.95;;;0.73;;
58842;SDS011;44614;54.356;10.100;2022-08-01T12:17:33;3.55;;;0.93;;
58842;SDS011;44614;54.356;10.100;2022-08-01T12:20:05;1.17;;;0.90;;
58842;SDS011;44614;54.356;10.100;2022-08-01T12:22:33;3.97;;;0.60;;
58842;SDS011;44614;54.356;10.100;2022-08-01T12:25:08;1.33;;;0.70;;
58842;SDS011;44614;54.356;10.100;2022-08-01T12:27:43;2.25;;;0.57;;
58842;SDS011;44614;54.356;10.100;2022-08-01T12:30:11;6.63;;;1.33;;
58842;SDS011;44614;54.356;10.100;2022-08-01T12:32:38;3.92;;;1.20;;
58842;SDS011;44614;54.356;10.100;2022-08-01T12:35:09;3.53;;;0.98;;
58842;SDS011;44614;54.356;10.100;2022-08-01T12:37:37;3.17;;;0.85;;
58842;SDS011;44614;54.356;10.100;2022-08-01T12:40:14;3.53;;;0.63;;
58842;SDS011;44614;54.356;10.100;2022-08-01T12:42:41;2.55;;;1.27;;
58842;SDS011;44614;54.356;10.100;2022-08-01T12:45:08;3.00;;;0.95;;
58842;SDS011;44614;54.356;10.100;2022-08-01T12:47:35;2.67;;;0.43;;
58842;SDS011;44614;54.356;10.100;2022-08-01T12:50:07;2.80;;;0.43;;
58842;SDS011;44614;54.356;10.100;2022-08-01T12:52:36;7.00;;;0.80;;
58842;SDS011;44614;54.356;10.100;2022-08-01T12:57:30;5.18;;;0.70;;
58842;SDS011;44614;54.356;10.100;2022-08-01T13:00:09;5.22;;;0.82;;
58842;SDS011;44614;54.356;10.100;2022-08-01T13:02:37;3.58;;;0.90;;
58842;SDS011;44614;54.356;10.100;2022-08-01T13:05:04;2.10;;;0.73;;
58842;SDS011;44614;54.356;10.100;2022-08-01T13:10:09;4.22;;;1.02;;
58842;SDS011;44614;54.356;10.100;2022-08-01T13:12:36;7.63;;;1.00;;
58842;SDS011;44614;54.356;10.100;2022-08-01T13:17:57;5.75;;;1.33;;
58842;SDS011;44614;54.356;10.100;2022-08-01T13:20:24;4.15;;;0.73;;
58842;SDS011;44614;54.356;10.100;2022-08-01T13:22:51;5.03;;;1.02;;
58842;SDS011;44614;54.356;10.100;2022-08-01T13:25:17;2.15;;;0.60;;
58842;SDS011;44614;54.356;10.100;2022-08-01T13:27:43;3.97;;;0.63;;
58842;SDS011;44614;54.356;10.100;2022-08-01T13:30:09;4.32;;;0.57;;
58842;SDS011;44614;54.356;10.100;2022-08-01T13:32:39;3.35;;;1.38;;
58842;SDS011;44614;54.356;10.100;2022-08-01T13:35:09;3.25;;;0.95;;
58842;SDS011;44614;54.356;10.100;2022-08-01T13:37:37;1.83;;;0.80;;
58842;SDS011;44614;54.356;10.100;2022-08-01T13:40:05;5.28;;;0.80;;
58842;SDS011;44614;54.356;10.100;2022-08-01T13:42:32;2.28;;;0.93;;
58842;SDS011;44614;54.356;10.100;2022-08-01T13:44:57;1.77;;;0.75;;
58842;SDS011;44614;54.356;10.100;2022-08-01T13:47:23;6.43;;;0.90;;
58842;SDS011;44614;54.356;10.100;2022-08-01T13:49:48;1.13;;;0.60;;
58842;SDS011;44614;54.356;10.100;2022-08-01T13:52:13;2.67;;;0.90;;
58842;SDS011;44614;54.356;10.100;2022-08-01T13:54:39;7.10;;;0.90;;
58842;SDS011;44614;54.356;10.100;2022-08-01T13:57:04;5.68;;;1.20;;
58842;SDS011;44614;54.356;10.100;2022-08-01T13:59:30;2.80;;;0.82;;
58842;SDS011;44614;54.356;10.100;2022-08-01T14:01:55;2.75;;;0.80;;
58842;SDS011;44614;54.356;10.100;2022-08-01T14:04:21;4.45;;;1.08;;
58842;SDS011;44614;54.356;10.100;2022-08-01T14:06:47;4.03;;;1.30;;
58842;SDS011;44614;54.356;10.100;2022-08-01T14:09:12;2.13;;;0.80;;
58842;SDS011;44614;54.356;10.100;2022-08-01T14:11:37;2.45;;;1.05;;
58842;SDS011;44614;54.356;10.100;2022-08-01T14:14:03;1.85;;;0.98;;
58842;SDS011;44614;54.356;10.100;2022-08-01T14:16:29;2.88;;;1.20;;
58842;SDS011;44614;54.356;10.100;2022-08-01T14:18:54;6.38;;;0.80;;
58842;SDS011;44614;54.356;10.100;2022-08-01T14:21:20;2.65;;;1.00;;
58842;SDS011;44614;54.356;10.100;2022-08-01T14:23:45;1.50;;;0.52;;
58842;SDS011;44614;54.356;10.100;2022-08-01T14:26:11;6.25;;;0.95;;
58842;SDS011;44614;54.356;10.100;2022-08-01T14:28:36;2.83;;;1.02;;
58842;SDS011;44614;54.356;10.100;2022-08-01T14:31:02;6.60;;;1.50;;
58842;SDS011;44614;54.356;10.100;2022-08-01T14:33:31;1.42;;;0.77;;
58842;SDS011;44614;54.356;10.100;2022-08-01T14:35:56;4.13;;;0.93;;
58842;SDS011;44614;54.356;10.100;2022-08-01T14:38:22;7.80;;;0.90;;
58842;SDS011;44614;54.356;10.100;2022-08-01T14:40:47;6.95;;;0.85;;
58842;SDS011;44614;54.356;10.100;2022-08-01T14:43:16;5.00;;;1.75;;
58842;SDS011;44614;54.356;10.100;2022-08-01T14:45:44;5.13;;;1.10;;
58842;SDS011;44614;54.356;10.100;2022-08-01T14:48:10;1.73;;;0.60;;
58842;SDS011;44614;54.356;10.100;2022-08-01T14:50:36;5.72;;;1.45;;
58842;SDS011;44614;54.356;10.100;2022-08-01T14:53:02;4.53;;;0.95;;
58842;SDS011;44614;54.356;10.100;2022-08-01T14:55:27;3.08;;;1.38;;
58842;SDS011;44614;54.356;10.100;2022-08-01T14:57:53;4.32;;;1.10;;
58842;SDS011;44614;54.356;10.100;2022-08-01T15:00:18;1.95;;;0.60;;
58842;SDS011;44614;54.356;10.100;2022-08-01T15:02:44;5.70;;;0.82;;
58842;SDS011;44614;54.356;10.100;2022-08-01T15:05:10;5.88;;;1.20;;
58842;SDS011;44614;54.356;10.100;2022-08-01T15:07:36;5.00;;;1.10;;
58842;SDS011;44614;54.356;10.100;2022-08-01T15:10:03;4.55;;;1.00;;
58842;SDS011;44614;54.356;10.100;2022-08-01T15:12:30;7.25;;;1.13;;
58842;SDS011;44614;54.356;10.100;2022-08-01T15:17:21;4.13;;;0.98;;
58842;SDS011;44614;54.356;10.100;2022-08-01T15:19:54;3.20;;;0.90;;
58842;SDS011;44614;54.356;10.100;2022-08-01T15:22:21;6.32;;;1.23;;
58842;SDS011;44614;54.356;10.100;2022-08-01T15:24:48;4.72;;;1.20;;
58842;SDS011;44614;54.356;10.100;2022-08-01T15:27:14;7.63;;;1.13;;
58842;SDS011;44614;54.356;10.100;2022-08-01T15:32:06;8.17;;;1.40;;
58842;SDS011;44614;54.356;10.100;2022-08-01T15:34:36;0.95;;;0.63;;
58842;SDS011;44614;54.356;10.100;2022-08-01T15:37:03;3.15;;;0.65;;
58842;SDS011;44614;54.356;10.100;2022-08-01T15:39:29;3.28;;;0.80;;
58842;SDS011;44614;54.356;10.100;2022-08-01T15:41:57;5.50;;;1.48;;
58842;SDS011;44614;54.356;10.100;2022-08-01T15:44:23;4.40;;;0.70;;
58842;SDS011;44614;54.356;10.100;2022-08-01T15:46:49;2.40;;;0.80;;
58842;SDS011;44614;54.356;10.100;2022-08-01T15:49:14;4.35;;;0.80;;
58842;SDS011;44614;54.356;10.100;2022-08-01T15:51:41;5.47;;;1.10;;
58842;SDS011;44614;54.356;10.100;2022-08-01T15:54:06;3.95;;;0.90;;
58842;SDS011;44614;54.356;10.100;2022-08-01T15:56:32;2.95;;;0.70;;
58842;SDS011;44614;54.356;10.100;2022-08-01T15:58:58;3.05;;;1.13;;
58842;SDS011;44614;54.356;10.100;2022-08-01T16:01:24;6.35;;;1.17;;
58842;SDS011;44614;54.356;10.100;2022-08-01T16:03:54;3.25;;;0.60;;
58842;SDS011;44614;54.356;10.100;2022-08-01T16:06:20;5.80;;;1.10;;
58842;SDS011;44614;54.356;10.100;2022-08-01T16:08:47;5.82;;;0.85;;